createdAt,value
2022-08-14T00:01:11.508Z,20.12
2022-08-14T00:05:18.153Z,20.18
2022-08-14T00:09:19.690Z,20.19
2022-08-14T00:13:24.883Z,20.19
2022-08-14T00:17:26.808Z,20.18
2022-08-14T00:21:30.954Z,19.91
2022-08-14T00:25:42.378Z,20.15
2022-08-14T00:29:44.184Z,20.18
2022-08-14T00:33:51.516Z,20.17
2022-08-14T00:37:54.614Z,20.08
2022-08-14T00:41:57.662Z,20.02
2022-08-14T00:46:08.171Z,20.21
2022-08-14T00:50:24.745Z,20.20
2022-08-14T00:54:27.448Z,20.20
2022-08-14T00:58:32.948Z,19.59
2022-08-14T01:02:36.414Z,19.90
2022-08-14T01:06:39.253Z,19.98
2022-08-14T01:10:53.412Z,20.00
2022-08-14T01:14:58.204Z,19.73
2022-08-14T01:19:19.594Z,19.74
2022-08-14T01:23:21.675Z,19.59
2022-08-14T01:27:25.002Z,19.61
2022-08-14T01:31:30.489Z,19.58
2022-08-14T01:35:32.193Z,19.53
2022-08-14T01:39:51.462Z,19.69
2022-08-14T01:44:00.996Z,19.59
2022-08-14T01:48:03.036Z,19.66
2022-08-14T01:52:08.971Z,19.53
2022-08-14T01:56:20.788Z,19.71
2022-08-14T02:00:22.462Z,19.76
2022-08-14T02:04:55.095Z,19.78
2022-08-14T02:08:56.531Z,19.90
2022-08-14T02:12:59.439Z,19.79
2022-08-14T02:17:02.237Z,19.90
2022-08-14T02:21:04.865Z,19.91
2022-08-14T02:25:06.879Z,19.92
2022-08-14T02:29:11.727Z,19.73
2022-08-14T02:33:13.323Z,19.82
2022-08-14T02:37:15.952Z,19.81
2022-08-14T02:41:17.441Z,19.74
2022-08-14T02:45:22.226Z,19.86
2022-08-14T02:49:34.295Z,19.80
2022-08-14T02:53:39.749Z,19.73
2022-08-14T02:57:44.304Z,19.41
2022-08-14T03:01:51.239Z,19.44
2022-08-14T03:05:56.390Z,19.74
2022-08-14T03:10:26.538Z,19.72
2022-08-14T03:14:21.450Z,19.85
2022-08-14T03:18:31.563Z,19.48
2022-08-14T03:22:33.929Z,19.81
2022-08-14T03:26:36.549Z,19.48
2022-08-14T03:30:41.391Z,19.48
2022-08-14T03:34:48.524Z,19.63
2022-08-14T03:39:16.002Z,19.55
2022-08-14T03:43:19.329Z,19.09
2022-08-14T03:47:20.799Z,19.52
2022-08-14T03:51:26.922Z,19.45
2022-08-14T03:55:30.394Z,19.27
2022-08-14T03:59:33.068Z,19.61
2022-08-14T04:03:37.339Z,19.70
2022-08-14T04:07:39.191Z,19.68
2022-08-14T04:11:51.052Z,19.50
2022-08-14T04:15:56.621Z,19.58
2022-08-14T04:20:05.997Z,19.42
2022-08-14T04:24:07.521Z,19.69
2022-08-14T04:28:58.794Z,19.56
2022-08-14T04:32:57.527Z,19.44
2022-08-14T04:37:22.218Z,19.33
2022-08-14T04:41:45.253Z,19.74
2022-08-14T04:45:51.348Z,19.79
2022-08-14T04:49:57.091Z,19.94
2022-08-14T04:54:00.581Z,20.13
2022-08-14T04:58:05.402Z,20.10
2022-08-14T05:02:08.168Z,20.18
2022-08-14T05:06:37.614Z,19.88
2022-08-14T05:10:32.915Z,20.33
2022-08-14T05:14:46.478Z,20.38
2022-08-14T05:19:18.036Z,20.64
2022-08-14T05:23:19.506Z,20.72
2022-08-14T05:27:22.969Z,20.91
2022-08-14T05:31:25.211Z,21.10
2022-08-14T05:35:42.416Z,21.22
2022-08-14T05:39:44.268Z,21.25
2022-08-14T05:43:48.009Z,21.04
2022-08-14T05:47:52.496Z,21.03
2022-08-14T05:51:53.903Z,21.33
2022-08-14T05:55:56.130Z,21.22
2022-08-14T05:59:57.625Z,21.57
2022-08-14T06:04:01.828Z,21.25
2022-08-14T06:08:21.843Z,21.58
2022-08-14T06:12:56.282Z,21.47
2022-08-14T06:16:57.473Z,21.67
2022-08-14T06:20:59.662Z,21.88
2022-08-14T06:25:01.180Z,22.44
2022-08-14T06:29:03.081Z,22.37
2022-08-14T06:33:06.831Z,22.45
2022-08-14T06:37:08.438Z,22.42
2022-08-14T06:41:11.034Z,22.70
2022-08-14T06:45:12.541Z,22.70
2022-08-14T06:49:16.590Z,22.52
2022-08-14T06:53:19.808Z,22.40
2022-08-14T06:57:21.681Z,22.33
2022-08-14T07:01:41.799Z,22.46
2022-08-14T07:05:55.752Z,22.71
2022-08-14T07:10:00.663Z,22.88
2022-08-14T07:14:02.609Z,23.05
2022-08-14T07:18:08.792Z,23.04
2022-08-14T07:22:17.578Z,23.48
2022-08-14T07:26:22.124Z,23.45
2022-08-14T07:30:34.134Z,23.43
2022-08-14T07:34:41.231Z,23.56
2022-08-14T07:38:43.416Z,23.71
2022-08-14T07:42:54.217Z,23.99
2022-08-14T07:46:55.757Z,24.08
2022-08-14T07:51:00.714Z,24.06
2022-08-14T07:55:06.407Z,24.52
2022-08-14T07:59:09.028Z,24.52
2022-08-14T08:03:12.115Z,24.65
2022-08-14T08:07:15.448Z,24.71
2022-08-14T08:11:19.512Z,24.93
2022-08-14T08:15:23.023Z,25.28
2022-08-14T08:19:25.390Z,25.49
2022-08-14T08:23:30.316Z,25.87
2022-08-14T08:27:44.884Z,25.93
2022-08-14T08:31:52.250Z,26.56
2022-08-14T08:35:58.260Z,26.23
2022-08-14T08:40:05.891Z,26.52
2022-08-14T08:44:17.244Z,26.67
2022-08-14T08:48:36.570Z,27.18
2022-08-14T08:52:51.143Z,27.56
2022-08-14T08:56:57.459Z,27.22
2022-08-14T09:01:00.578Z,27.57
2022-08-14T09:05:03.866Z,27.41
2022-08-14T09:09:27.085Z,27.94
2022-08-14T09:13:37.938Z,27.83
2022-08-14T09:17:43.338Z,27.97
2022-08-14T09:21:47.446Z,28.07
2022-08-14T09:25:59.018Z,28.44
2022-08-14T09:30:30.761Z,28.21
2022-08-14T09:34:58.128Z,28.45
2022-08-14T09:39:22.871Z,28.18
2022-08-14T09:43:48.888Z,28.91
2022-08-14T09:47:53.522Z,29.42
2022-08-14T09:52:04.224Z,29.26
2022-08-14T09:56:30.953Z,29.25
2022-08-14T10:00:43.932Z,29.26
2022-08-14T10:04:50.032Z,29.78
2022-08-14T10:08:57.971Z,29.83
2022-08-14T10:13:01.351Z,30.14
2022-08-14T10:17:06.247Z,30.34
2022-08-14T10:21:16.224Z,31.01
2022-08-14T10:25:18.055Z,31.24
2022-08-14T10:29:34.575Z,31.15
2022-08-14T10:33:37.569Z,32.13
2022-08-14T10:37:44.240Z,31.88
2022-08-14T10:41:49.274Z,31.92
2022-08-14T10:46:04.015Z,32.81
2022-08-14T10:50:38.852Z,32.75
2022-08-14T10:54:47.457Z,32.92
2022-08-14T10:58:49.106Z,32.75
2022-08-14T11:03:00.275Z,32.90
2022-08-14T11:07:02.220Z,32.67
2022-08-14T11:11:07.516Z,33.23
2022-08-14T11:15:10.268Z,33.37
2022-08-14T11:19:13.482Z,32.95
2022-08-14T11:23:15.400Z,33.08
2022-08-14T11:27:20.016Z,32.49
2022-08-14T11:31:23.955Z,32.97
2022-08-14T11:35:44.024Z,33.59
2022-08-14T11:39:49.254Z,33.92
2022-08-14T11:43:58.566Z,33.89
2022-08-14T11:49:03.131Z,34.49
2022-08-14T11:52:40.248Z,34.27
2022-08-14T11:56:42.234Z,33.99
2022-08-14T12:01:02.503Z,33.87
2022-08-14T12:05:04.602Z,33.62
2022-08-14T12:09:15.140Z,33.64
2022-08-14T12:13:19.147Z,33.55
2022-08-14T12:17:25.510Z,33.88
2022-08-14T12:21:29.517Z,34.05
2022-08-14T12:25:35.378Z,33.91
2022-08-14T12:29:36.842Z,34.12
2022-08-14T12:33:47.020Z,33.74
2022-08-14T12:37:55.072Z,34.96
2022-08-14T12:42:01.521Z,35.40
2022-08-14T12:46:02.971Z,35.11
2022-08-14T12:50:06.852Z,34.79
2022-08-14T12:54:28.165Z,34.95
2022-08-14T12:58:38.068Z,33.84
2022-08-14T13:02:55.815Z,32.66
2022-08-14T13:07:08.830Z,32.94
2022-08-14T13:11:14.876Z,33.70
2022-08-14T13:15:19.512Z,34.71
2022-08-14T13:19:24.335Z,35.29
2022-08-14T13:23:33.255Z,34.67
2022-08-14T13:27:38.546Z,34.85
2022-08-14T13:31:45.587Z,34.22
2022-08-14T13:35:50.331Z,34.78
2022-08-14T13:39:56.566Z,34.65
2022-08-14T13:44:00.653Z,36.09
2022-08-14T13:48:02.516Z,36.44
2022-08-14T13:52:48.206Z,35.28
2022-08-14T13:56:36.693Z,36.03
2022-08-14T14:00:53.138Z,35.52
2022-08-14T14:05:00.761Z,36.27
2022-08-14T14:09:03.644Z,36.02
2022-08-14T14:13:05.789Z,36.41
2022-08-14T14:17:08.818Z,36.20
2022-08-14T14:21:13.682Z,35.55
2022-08-14T14:25:19.565Z,34.90
2022-08-14T14:29:26.430Z,35.74
2022-08-14T14:33:49.555Z,35.07
2022-08-14T14:37:51.964Z,35.01
2022-08-14T14:41:56.807Z,35.50
2022-08-14T14:45:58.644Z,35.70
2022-08-14T14:50:03.781Z,36.26
2022-08-14T14:54:08.294Z,36.72
2022-08-14T14:58:10.301Z,36.64
2022-08-14T15:02:38.131Z,36.41
2022-08-14T15:06:47.578Z,36.77
2022-08-14T15:10:49.549Z,36.68
2022-08-14T15:14:58.059Z,36.77
2022-08-14T15:19:11.595Z,36.75
2022-08-14T15:23:16.161Z,36.19
2022-08-14T15:27:26.136Z,37.09
2022-08-14T15:31:28.231Z,36.22
2022-08-14T15:35:33.941Z,35.73
2022-08-14T15:39:38.451Z,35.77
2022-08-14T15:43:42.691Z,34.78
2022-08-14T15:47:47.190Z,35.47
2022-08-14T15:51:58.033Z,34.92
2022-08-14T15:55:59.632Z,35.14
2022-08-14T16:00:40.837Z,34.84
2022-08-14T16:04:41.306Z,33.92
2022-08-14T16:08:44.760Z,33.52
2022-08-14T16:12:47.884Z,33.21
2022-08-14T16:17:00.321Z,33.11
2022-08-14T16:21:17.162Z,33.29
2022-08-14T16:25:21.256Z,33.94
2022-08-14T16:29:41.898Z,33.81
2022-08-14T16:33:59.131Z,33.80
2022-08-14T16:38:03.344Z,33.99
2022-08-14T16:42:38.625Z,34.31
2022-08-14T16:46:45.600Z,35.63
2022-08-14T16:50:50.370Z,36.20
2022-08-14T16:54:51.953Z,36.36
2022-08-14T16:59:08.326Z,34.78
2022-08-14T17:03:11.775Z,36.33
2022-08-14T17:07:15.281Z,36.12
2022-08-14T17:11:16.750Z,36.41
2022-08-14T17:15:19.815Z,36.01
2022-08-14T17:19:22.448Z,34.67
2022-08-14T17:23:29.926Z,35.08
2022-08-14T17:27:32.359Z,33.51
2022-08-14T17:31:58.727Z,33.86
2022-08-14T17:36:20.189Z,32.61
2022-08-14T17:40:29.457Z,32.80
2022-08-14T17:44:45.799Z,32.00
2022-08-14T17:49:16.303Z,31.37
2022-08-14T17:53:09.561Z,31.82
2022-08-14T17:57:14.926Z,31.59
2022-08-14T18:01:23.678Z,31.51
2022-08-14T18:06:09.413Z,30.62
2022-08-14T18:09:58.657Z,29.86
2022-08-14T18:14:01.728Z,29.35
2022-08-14T18:18:06.660Z,29.53
2022-08-14T18:22:23.915Z,29.28
2022-08-14T18:26:37.008Z,28.94
2022-08-14T18:30:40.558Z,29.07
2022-08-14T18:35:11.408Z,28.65
2022-08-14T18:39:26.365Z,28.32
2022-08-14T18:43:44.268Z,27.74
2022-08-14T18:48:14.875Z,27.52
2022-08-14T18:52:18.616Z,27.38
2022-08-14T18:57:09.924Z,27.32
2022-08-14T19:01:22.931Z,27.40
2022-08-14T19:05:37.726Z,27.30
2022-08-14T19:10:00.865Z,27.08
2022-08-14T19:14:05.272Z,27.02
2022-08-14T19:18:28.411Z,27.11
2022-08-14T19:22:32.381Z,27.10
2022-08-14T19:26:52.002Z,26.90
2022-08-14T19:31:42.003Z,26.73
2022-08-14T19:35:55.026Z,26.45
2022-08-14T19:39:57.773Z,26.59
2022-08-14T19:44:32.052Z,26.52
2022-08-14T19:48:34.003Z,26.36
2022-08-14T19:52:39.905Z,26.58
2022-08-14T19:56:45.137Z,26.42
2022-08-14T20:00:56.460Z,26.57
2022-08-14T20:05:04.300Z,26.50
2022-08-14T20:11:05.841Z,26.42
2022-08-14T20:13:33.351Z,26.43
2022-08-14T20:17:40.334Z,26.55
2022-08-14T20:22:34.671Z,26.22
2022-08-14T20:26:30.937Z,26.07
2022-08-14T20:30:36.109Z,26.02
2022-08-14T20:34:38.663Z,25.79
2022-08-14T20:38:59.790Z,26.09
2022-08-14T20:43:20.245Z,26.22
2022-08-14T20:47:26.774Z,26.19
2022-08-14T20:51:58.843Z,25.88
2022-08-14T20:56:30.070Z,25.58
2022-08-14T21:00:52.292Z,25.31
2022-08-14T21:05:34.310Z,25.39
2022-08-14T21:10:05.814Z,25.25
2022-08-14T21:14:29.283Z,25.29
2022-08-14T21:18:34.519Z,25.37
2022-08-14T21:22:36.870Z,25.30
2022-08-14T21:26:52.835Z,25.65
2022-08-14T21:31:00.137Z,25.64
2022-08-14T21:35:08.236Z,25.72
2022-08-14T21:39:18.483Z,25.51
2022-08-14T21:43:24.033Z,25.47
2022-08-14T21:47:25.498Z,25.19
2022-08-14T21:51:55.904Z,24.79
2022-08-14T21:55:49.490Z,24.74
2022-08-14T21:59:52.792Z,24.79
2022-08-14T22:03:59.307Z,24.39
2022-08-14T22:08:06.774Z,24.83
2022-08-14T22:12:10.033Z,24.90
2022-08-14T22:17:00.613Z,24.68
2022-08-14T22:20:34.083Z,24.51
2022-08-14T22:24:38.721Z,24.62
2022-08-14T22:28:55.851Z,24.71
2022-08-14T22:33:00.069Z,24.75
2022-08-14T22:37:02.276Z,24.56
2022-08-14T22:41:27.634Z,24.26
2022-08-14T22:45:36.361Z,24.30
2022-08-14T22:50:30.302Z,24.32
2022-08-14T22:54:00.861Z,23.82
2022-08-14T22:58:06.227Z,23.49
2022-08-14T23:02:22.253Z,23.45
2022-08-14T23:07:03.305Z,23.15
2022-08-14T23:10:54.034Z,23.45
2022-08-14T23:14:55.909Z,23.68
2022-08-14T23:18:57.373Z,23.32
2022-08-14T23:22:59.661Z,23.27
2022-08-14T23:27:01.193Z,23.54
2022-08-14T23:31:05.680Z,23.42
2022-08-14T23:35:08.305Z,23.31
2022-08-14T23:39:19.091Z,23.11
2022-08-14T23:43:20.893Z,23.08
2022-08-14T23:47:26.091Z,23.26
2022-08-14T23:51:29.132Z,22.96
2022-08-14T23:55:42.030Z,22.74
2022-08-14T23:59:45.157Z,22.83
